createdAt,value
2022-08-05T00:01:27.644Z,94.88
2022-08-05T00:03:56.952Z,94.67
2022-08-05T00:06:29.183Z,94.41
2022-08-05T00:09:00.619Z,94.33
2022-08-05T00:11:34.445Z,94.57
2022-08-05T00:14:12.999Z,94.55
2022-08-05T00:16:52.870Z,94.67
2022-08-05T00:19:21.484Z,94.87
2022-08-05T00:21:49.227Z,94.43
2022-08-05T00:24:18.906Z,94.56
2022-08-05T00:26:50.668Z,94.49
2022-08-05T00:29:19.093Z,94.60
2022-08-05T00:32:10.101Z,94.52
2022-08-05T00:34:56.798Z,94.32
2022-08-05T00:37:23.520Z,94.32
2022-08-05T00:39:58.326Z,94.16
2022-08-05T00:42:32.652Z,94.22
2022-08-05T00:45:00.497Z,94.33
2022-08-05T00:47:27.682Z,94.77
2022-08-05T00:50:14.492Z,94.72
2022-08-05T00:52:42.421Z,94.66
2022-08-05T00:55:12.419Z,94.55
2022-08-05T00:57:57.957Z,94.74
2022-08-05T01:00:28.745Z,94.76
2022-08-05T01:02:56.861Z,94.72
2022-08-05T01:05:24.413Z,94.50
2022-08-05T01:08:41.245Z,94.60
2022-08-05T01:10:52.575Z,94.62
2022-08-05T01:13:58.920Z,94.73
2022-08-05T01:16:52.639Z,94.59
2022-08-05T01:19:36.821Z,94.77
2022-08-05T01:22:31.857Z,94.59
2022-08-05T01:25:04.582Z,94.77
2022-08-05T01:27:59.560Z,94.52
2022-08-05T01:30:34.193Z,94.92
2022-08-05T01:33:06.246Z,94.81
2022-08-05T01:35:51.195Z,95.15
2022-08-05T01:38:26.939Z,95.10
2022-08-05T01:40:57.399Z,95.15
2022-08-05T01:43:26.499Z,95.27
2022-08-05T01:45:56.698Z,95.53
2022-08-05T01:48:27.150Z,95.34
2022-08-05T01:50:56.862Z,95.43
2022-08-05T01:53:57.484Z,95.36
2022-08-05T01:58:10.811Z,95.28
2022-08-05T01:59:09.767Z,95.14
2022-08-05T02:01:39.936Z,95.18
2022-08-05T02:04:10.177Z,95.42
2022-08-05T02:06:39.085Z,95.36
2022-08-05T02:09:07.331Z,95.31
2022-08-05T02:11:53.489Z,95.22
2022-08-05T02:14:27.627Z,95.14
2022-08-05T02:16:58.006Z,94.82
2022-08-05T02:19:28.303Z,94.57
2022-08-05T02:22:25.784Z,94.75
2022-08-05T02:25:06.067Z,95.05
2022-08-05T02:27:57.976Z,94.56
2022-08-05T02:30:27.824Z,94.47
2022-08-05T02:33:00.092Z,94.38
2022-08-05T02:35:33.400Z,94.35
2022-08-05T02:38:09.427Z,94.49
2022-08-05T02:40:40.910Z,94.69
2022-08-05T02:43:10.889Z,94.88
2022-08-05T02:45:52.951Z,94.89
2022-08-05T02:48:29.053Z,95.06
2022-08-05T02:51:00.073Z,94.91
2022-08-05T02:53:39.206Z,94.93
2022-08-05T02:56:09.482Z,94.87
2022-08-05T02:58:43.610Z,94.88
2022-08-05T03:01:16.981Z,94.69
2022-08-05T03:04:04.346Z,94.54
2022-08-05T03:06:57.161Z,94.59
2022-08-05T03:09:27.066Z,94.57
2022-08-05T03:12:05.082Z,94.47
2022-08-05T03:14:32.018Z,94.39
2022-08-05T03:16:59.147Z,94.50
2022-08-05T03:19:34.245Z,94.56
2022-08-05T03:22:05.125Z,94.56
2022-08-05T03:24:51.046Z,94.56
2022-08-05T03:27:22.518Z,94.28
2022-08-05T03:30:08.164Z,94.18
2022-08-05T03:32:36.509Z,94.19
2022-08-05T03:35:04.433Z,94.21
2022-08-05T03:37:37.788Z,94.14
2022-08-05T03:40:14.038Z,94.01
2022-08-05T03:42:51.660Z,94.19
2022-08-05T03:45:21.535Z,93.89
2022-08-05T03:47:50.884Z,93.66
2022-08-05T03:50:17.858Z,93.67
2022-08-05T03:55:06.692Z,93.97
2022-08-05T03:56:35.719Z,94.14
2022-08-05T03:59:07.550Z,94.01
2022-08-05T04:01:39.645Z,93.92
2022-08-05T04:04:10.140Z,94.31
2022-08-05T04:06:38.163Z,94.56
2022-08-05T04:09:16.147Z,94.65
2022-08-05T04:11:53.351Z,94.58
2022-08-05T04:14:30.280Z,94.37
2022-08-05T04:16:59.963Z,94.54
2022-08-05T04:19:28.777Z,94.25
2022-08-05T04:22:10.039Z,94.47
2022-08-05T04:24:52.257Z,94.35
2022-08-05T04:27:33.166Z,93.92
2022-08-05T04:30:08.998Z,93.75
2022-08-05T04:32:36.460Z,94.00
2022-08-05T04:35:04.773Z,94.20
2022-08-05T04:38:00.609Z,94.11
2022-08-05T04:40:20.082Z,93.63
2022-08-05T04:42:47.038Z,93.45
2022-08-05T04:45:31.069Z,93.55
2022-08-05T04:48:18.561Z,93.47
2022-08-05T04:51:02.754Z,93.60
2022-08-05T04:53:38.907Z,93.56
2022-08-05T04:56:32.699Z,93.57
2022-08-05T04:58:56.483Z,93.71
2022-08-05T05:02:05.532Z,93.46
2022-08-05T05:04:10.267Z,93.51
2022-08-05T05:06:44.700Z,93.36
2022-08-05T05:09:14.255Z,93.47
2022-08-05T05:11:54.622Z,93.45
2022-08-05T05:14:27.786Z,93.31
2022-08-05T05:17:00.100Z,93.13
2022-08-05T05:19:36.539Z,92.79
2022-08-05T05:22:22.666Z,92.69
2022-08-05T05:24:57.034Z,92.80
2022-08-05T05:27:44.889Z,93.17
2022-08-05T05:30:29.148Z,93.09
2022-08-05T05:33:00.856Z,93.43
2022-08-05T05:35:37.675Z,93.28
2022-08-05T05:38:09.284Z,93.07
2022-08-05T05:40:49.942Z,93.29
2022-08-05T05:43:54.012Z,93.36
2022-08-05T05:46:15.810Z,93.25
2022-08-05T05:48:44.042Z,93.28
2022-08-05T05:51:15.893Z,93.30
2022-08-05T05:53:54.467Z,93.19
2022-08-05T05:56:33.111Z,93.31
2022-08-05T05:59:06.510Z,93.62
2022-08-05T06:01:37.701Z,93.30
2022-08-05T06:04:14.582Z,93.32
2022-08-05T06:06:46.707Z,93.36
2022-08-05T06:09:24.777Z,92.92
2022-08-05T06:12:03.648Z,92.92
2022-08-05T06:14:31.658Z,93.10
2022-08-05T06:16:59.385Z,93.13
2022-08-05T06:19:34.469Z,92.97
2022-08-05T06:22:04.234Z,92.96
2022-08-05T06:24:41.304Z,92.31
2022-08-05T06:28:09.409Z,91.83
2022-08-05T06:30:16.827Z,91.66
2022-08-05T06:32:46.923Z,91.61
2022-08-05T06:35:15.394Z,91.31
2022-08-05T06:37:57.636Z,90.51
2022-08-05T06:40:32.316Z,89.79
2022-08-05T06:42:59.556Z,89.18
2022-08-05T06:45:55.478Z,89.31
2022-08-05T06:48:53.216Z,89.77
2022-08-05T06:51:00.357Z,89.88
2022-08-05T06:53:28.986Z,89.86
2022-08-05T06:56:00.647Z,89.40
2022-08-05T06:58:34.754Z,89.31
2022-08-05T07:01:05.217Z,89.86
2022-08-05T07:03:33.697Z,89.18
2022-08-05T07:06:05.417Z,89.15
2022-08-05T07:08:43.122Z,89.42
2022-08-05T07:11:15.864Z,88.44
2022-08-05T07:14:02.746Z,88.49
2022-08-05T07:18:00.995Z,88.30
2022-08-05T07:22:28.662Z,88.08
2022-08-05T07:25:55.489Z,87.91
2022-08-05T07:27:56.520Z,87.92
2022-08-05T07:30:32.909Z,87.78
2022-08-05T07:33:09.742Z,87.90
2022-08-05T07:36:03.389Z,87.94
2022-08-05T07:38:32.234Z,87.81
2022-08-05T07:42:08.805Z,87.49
2022-08-05T07:43:51.858Z,87.64
2022-08-05T07:46:25.489Z,86.97
2022-08-05T07:49:02.068Z,86.81
2022-08-05T07:51:41.022Z,86.75
2022-08-05T07:54:23.349Z,86.26
2022-08-05T07:57:01.582Z,86.06
2022-08-05T07:59:41.409Z,86.25
2022-08-05T08:02:16.524Z,86.34
2022-08-05T08:04:49.441Z,86.16
2022-08-05T08:07:22.879Z,86.10
2022-08-05T08:09:52.418Z,86.15
2022-08-05T08:12:35.639Z,86.11
2022-08-05T08:15:15.830Z,86.45
2022-08-05T08:17:49.718Z,86.46
2022-08-05T08:20:44.495Z,86.15
2022-08-05T08:24:01.931Z,85.67
2022-08-05T08:26:00.611Z,85.78
2022-08-05T08:28:36.312Z,85.73
2022-08-05T08:31:08.098Z,85.54
2022-08-05T08:33:35.874Z,85.29
2022-08-05T08:36:38.989Z,84.21
2022-08-05T08:38:57.073Z,84.27
2022-08-05T08:41:50.441Z,84.94
2022-08-05T08:45:23.067Z,83.78
2022-08-05T08:47:47.370Z,83.79
2022-08-05T08:50:14.636Z,83.89
2022-08-05T08:52:47.369Z,82.76
2022-08-05T08:56:02.444Z,81.69
2022-08-05T08:58:06.817Z,81.45
2022-08-05T09:00:36.244Z,81.57
2022-08-05T09:03:05.695Z,81.37
2022-08-05T09:05:38.378Z,81.17
2022-08-05T09:08:27.395Z,80.70
2022-08-05T09:10:57.909Z,80.29
2022-08-05T09:13:24.819Z,80.73
2022-08-05T09:15:59.648Z,80.54
2022-08-05T09:18:26.346Z,80.43
2022-08-05T09:20:53.006Z,79.67
2022-08-05T09:23:21.653Z,79.74
2022-08-05T09:26:06.419Z,79.53
2022-08-05T09:28:37.836Z,78.83
2022-08-05T09:31:18.245Z,78.12
2022-08-05T09:34:01.520Z,77.90
2022-08-05T09:36:54.968Z,78.00
2022-08-05T09:39:39.551Z,78.29
2022-08-05T09:42:32.751Z,78.09
2022-08-05T09:46:04.865Z,77.94
2022-08-05T09:47:56.264Z,77.05
2022-08-05T09:50:38.802Z,76.04
2022-08-05T09:53:15.585Z,75.95
2022-08-05T09:55:57.524Z,76.20
2022-08-05T09:58:29.118Z,76.63
2022-08-05T10:01:15.096Z,76.89
2022-08-05T10:04:00.661Z,76.91
2022-08-05T10:06:28.183Z,77.30
2022-08-05T10:08:56.341Z,77.36
2022-08-05T10:11:23.937Z,77.27
2022-08-05T10:13:58.713Z,77.73
2022-08-05T10:16:42.019Z,78.58
2022-08-05T10:19:23.546Z,78.98
2022-08-05T10:22:15.821Z,79.18
2022-08-05T10:24:58.027Z,79.45
2022-08-05T10:27:26.270Z,78.72
2022-08-05T10:32:48.663Z,78.84
2022-08-05T10:33:02.532Z,78.71
2022-08-05T10:35:33.655Z,78.35
2022-08-05T10:38:08.453Z,77.58
2022-08-05T10:40:58.227Z,76.62
2022-08-05T10:43:35.962Z,76.85
2022-08-05T10:46:09.262Z,77.05
2022-08-05T10:48:57.371Z,77.24
2022-08-05T10:51:28.765Z,77.42
2022-08-05T10:54:23.031Z,77.70
2022-08-05T10:56:57.466Z,77.04
2022-08-05T11:00:02.483Z,76.88
2022-08-05T11:02:34.915Z,75.98
2022-08-05T11:05:10.369Z,75.44
2022-08-05T11:08:33.846Z,75.10
2022-08-05T11:11:00.876Z,75.03
2022-08-05T11:13:54.839Z,74.72
2022-08-05T11:16:33.693Z,75.01
2022-08-05T11:20:11.290Z,74.57
2022-08-05T11:22:49.996Z,74.61
2022-08-05T11:26:05.177Z,73.42
2022-08-05T11:28:30.808Z,72.96
2022-08-05T11:31:06.243Z,72.94
2022-08-05T11:33:46.653Z,72.48
2022-08-05T11:36:33.964Z,72.40
2022-08-05T11:39:01.728Z,72.58
2022-08-05T11:41:56.235Z,72.33
2022-08-05T11:44:40.463Z,71.33
2022-08-05T11:47:11.242Z,71.89
2022-08-05T11:49:43.329Z,71.42
2022-08-05T11:52:29.453Z,70.57
2022-08-05T11:54:59.400Z,70.92
2022-08-05T11:58:08.374Z,70.48
2022-08-05T12:00:30.218Z,71.16
2022-08-05T12:02:57.860Z,71.23
2022-08-05T12:05:32.337Z,71.75
2022-08-05T12:08:10.087Z,71.83
2022-08-05T12:10:45.371Z,72.26
2022-08-05T12:13:18.865Z,72.53
2022-08-05T12:16:14.849Z,72.61
2022-08-05T12:18:52.170Z,72.56
2022-08-05T12:21:26.940Z,72.85
2022-08-05T12:24:07.548Z,72.81
2022-08-05T12:26:46.585Z,73.29
2022-08-05T12:29:22.984Z,72.89
2022-08-05T12:31:56.166Z,72.74
2022-08-05T12:34:28.822Z,72.42
2022-08-05T12:36:58.186Z,72.31
2022-08-05T12:39:27.889Z,72.52
2022-08-05T12:42:02.386Z,71.87
2022-08-05T12:44:33.881Z,71.71
2022-08-05T12:47:01.794Z,71.12
2022-08-05T12:50:04.097Z,72.00
2022-08-05T12:52:41.771Z,71.62
2022-08-05T12:55:23.778Z,72.53
2022-08-05T12:58:50.396Z,72.66
2022-08-05T13:02:00.489Z,72.89
2022-08-05T13:03:31.924Z,71.45
2022-08-05T13:06:01.448Z,69.91
2022-08-05T13:08:30.324Z,67.68
2022-08-05T13:11:04.234Z,67.84
2022-08-05T13:14:05.433Z,67.50
2022-08-05T13:16:20.336Z,67.59
2022-08-05T13:18:52.347Z,67.39
2022-08-05T13:21:22.400Z,67.74
2022-08-05T13:23:55.015Z,67.88
2022-08-05T13:26:29.836Z,68.39
2022-08-05T13:28:59.280Z,68.47
2022-08-05T13:32:03.141Z,67.57
2022-08-05T13:34:20.954Z,67.59
2022-08-05T13:36:50.664Z,68.20
2022-08-05T13:39:24.534Z,68.83
2022-08-05T13:42:04.578Z,69.17
2022-08-05T13:44:32.948Z,69.25
2022-08-05T13:47:08.466Z,69.70
2022-08-05T13:49:36.570Z,69.79
2022-08-05T13:52:11.761Z,68.82
2022-08-05T13:54:39.327Z,68.83
2022-08-05T13:57:07.849Z,68.46
2022-08-05T13:59:38.467Z,67.84
2022-08-05T14:02:26.619Z,67.59
2022-08-05T14:05:15.417Z,66.69
2022-08-05T14:08:02.890Z,66.77
2022-08-05T14:10:32.990Z,66.03
2022-08-05T14:12:59.909Z,66.43
2022-08-05T14:16:07.975Z,66.21
2022-08-05T14:18:18.291Z,66.50
2022-08-05T14:20:54.767Z,66.40
2022-08-05T14:23:26.047Z,66.66
2022-08-05T14:25:58.069Z,66.42
2022-08-05T14:28:29.269Z,66.04
2022-08-05T14:31:00.865Z,66.12
2022-08-05T14:33:56.669Z,66.57
2022-08-05T14:36:16.126Z,66.66
2022-08-05T14:38:49.613Z,66.31
2022-08-05T14:41:17.767Z,66.41
2022-08-05T14:44:02.503Z,66.89
2022-08-05T14:46:35.268Z,66.74
2022-08-05T14:49:07.252Z,66.73
2022-08-05T14:51:42.577Z,66.58
2022-08-05T14:54:28.122Z,66.73
2022-08-05T14:56:58.057Z,66.56
2022-08-05T14:59:25.017Z,66.85
2022-08-05T15:01:56.769Z,66.89
2022-08-05T15:04:27.472Z,67.08
2022-08-05T15:06:56.418Z,66.66
2022-08-05T15:09:52.097Z,67.02
2022-08-05T15:12:16.492Z,66.70
2022-08-05T15:14:49.512Z,67.31
2022-08-05T15:17:46.406Z,66.93
2022-08-05T15:20:19.117Z,66.79
2022-08-05T15:22:54.345Z,66.75
2022-08-05T15:25:40.841Z,66.60
2022-08-05T15:28:13.304Z,66.71
2022-08-05T15:30:43.389Z,67.06
2022-08-05T15:33:10.853Z,66.80
2022-08-05T15:35:45.339Z,67.10
2022-08-05T15:38:34.111Z,66.67
2022-08-05T15:41:23.160Z,66.71
2022-08-05T15:43:47.414Z,66.46
2022-08-05T15:46:14.434Z,65.87
2022-08-05T15:48:58.081Z,65.82
2022-08-05T15:52:12.646Z,66.61
2022-08-05T15:54:16.771Z,66.05
2022-08-05T15:56:43.852Z,69.02
2022-08-05T15:59:20.052Z,72.13
2022-08-05T16:01:52.698Z,73.74
2022-08-05T16:04:25.598Z,76.00
2022-08-05T16:06:55.597Z,77.40
2022-08-05T16:09:23.928Z,78.72
2022-08-05T16:11:53.214Z,80.41
2022-08-05T16:14:21.862Z,80.94
2022-08-05T16:16:49.907Z,84.58
2022-08-05T16:19:25.475Z,84.20
2022-08-05T16:22:04.706Z,84.40
2022-08-05T16:24:41.798Z,84.60
2022-08-05T16:27:18.549Z,84.82
2022-08-05T16:29:52.219Z,85.16
2022-08-05T16:32:23.654Z,85.67
2022-08-05T16:34:55.668Z,85.25
2022-08-05T16:38:03.529Z,86.84
2022-08-05T16:40:24.709Z,87.14
2022-08-05T16:42:52.432Z,86.70
2022-08-05T16:46:05.191Z,86.97
2022-08-05T16:48:06.343Z,86.85
2022-08-05T16:50:33.059Z,86.73
2022-08-05T16:53:11.989Z,86.91
2022-08-05T16:55:47.031Z,87.44
2022-08-05T16:58:19.707Z,87.30
2022-08-05T17:00:48.165Z,86.93
2022-08-05T17:03:19.667Z,86.46
2022-08-05T17:05:53.942Z,86.96
2022-08-05T17:08:36.348Z,87.02
2022-08-05T17:11:16.869Z,87.23
2022-08-05T17:13:45.116Z,87.37
2022-08-05T17:16:29.948Z,88.14
2022-08-05T17:18:59.737Z,88.63
2022-08-05T17:21:35.521Z,88.59
2022-08-05T17:24:19.900Z,89.29
2022-08-05T17:26:53.750Z,90.12
2022-08-05T17:29:33.428Z,89.54
2022-08-05T17:32:06.968Z,89.97
2022-08-05T17:34:35.512Z,90.89
2022-08-05T17:37:02.192Z,90.71
2022-08-05T17:39:33.955Z,90.18
2022-08-05T17:42:20.410Z,90.74
2022-08-05T17:44:51.026Z,90.71
2022-08-05T17:47:23.094Z,90.94
2022-08-05T17:50:04.234Z,91.70
2022-08-05T17:52:53.336Z,91.87
2022-08-05T17:55:34.225Z,92.16
2022-08-05T17:58:04.512Z,92.33
2022-08-05T18:00:34.494Z,92.74
2022-08-05T18:03:02.638Z,93.04
2022-08-05T18:05:35.595Z,93.33
2022-08-05T18:08:03.845Z,92.42
2022-08-05T18:10:32.058Z,92.70
2022-08-05T18:13:00.257Z,92.85
2022-08-05T18:15:31.194Z,93.04
2022-08-05T18:18:05.725Z,93.34
2022-08-05T18:20:37.999Z,93.83
2022-08-05T18:23:11.335Z,93.98
2022-08-05T18:25:45.000Z,93.81
2022-08-05T18:28:16.466Z,93.83
2022-08-05T18:30:50.983Z,93.91
2022-08-05T18:33:22.706Z,93.87
2022-08-05T18:36:03.892Z,93.97
2022-08-05T18:38:35.956Z,94.26
2022-08-05T18:41:56.502Z,94.30
2022-08-05T18:43:51.900Z,94.73
2022-08-05T18:46:19.802Z,95.15
2022-08-05T18:48:53.924Z,95.64
2022-08-05T18:52:04.929Z,95.88
2022-08-05T18:54:28.597Z,95.90
2022-08-05T18:57:02.544Z,94.73
2022-08-05T18:59:43.089Z,94.11
2022-08-05T19:02:27.847Z,94.23
2022-08-05T19:05:02.686Z,94.61
2022-08-05T19:07:50.191Z,94.56
2022-08-05T19:10:26.632Z,94.69
2022-08-05T19:12:56.698Z,94.85
2022-08-05T19:15:57.511Z,94.97
2022-08-05T19:18:20.883Z,94.72
2022-08-05T19:20:52.164Z,94.83
2022-08-05T19:24:05.996Z,94.74
2022-08-05T19:26:09.206Z,94.95
2022-08-05T19:28:44.070Z,94.74
2022-08-05T19:31:13.169Z,95.38
2022-08-05T19:33:48.655Z,95.78
2022-08-05T19:36:25.279Z,96.30
2022-08-05T19:38:54.609Z,96.08
2022-08-05T19:41:58.064Z,95.83
2022-08-05T19:44:13.010Z,95.62
2022-08-05T19:46:40.880Z,95.50
2022-08-05T19:49:12.541Z,95.40
2022-08-05T19:52:08.390Z,94.99
2022-08-05T19:54:34.721Z,95.49
2022-08-05T19:57:09.426Z,95.31
2022-08-05T19:59:54.892Z,95.52
2022-08-05T20:02:27.708Z,95.32
2022-08-05T20:04:58.291Z,96.05
2022-08-05T20:07:46.931Z,95.48
2022-08-05T20:10:14.505Z,95.25
2022-08-05T20:12:46.298Z,95.19
2022-08-05T20:15:47.809Z,95.12
2022-08-05T20:18:10.792Z,95.22
2022-08-05T20:20:55.352Z,95.15
2022-08-05T20:23:40.569Z,95.36
2022-08-05T20:26:15.843Z,95.73
2022-08-05T20:28:53.807Z,95.50
2022-08-05T20:31:28.761Z,96.22
2022-08-05T20:34:04.582Z,96.56
2022-08-05T20:36:31.572Z,96.19
2022-08-05T20:38:59.555Z,96.13
2022-08-05T20:41:43.920Z,96.73
2022-08-05T20:44:18.371Z,96.39
2022-08-05T20:46:47.839Z,96.91
2022-08-05T20:49:15.311Z,96.85
2022-08-05T20:51:53.802Z,96.83
2022-08-05T20:54:22.839Z,96.94
2022-08-05T20:56:52.834Z,96.91
2022-08-05T20:59:26.478Z,96.84
2022-08-05T21:01:56.488Z,96.82
2022-08-05T21:04:26.976Z,97.02
2022-08-05T21:06:54.901Z,97.10
2022-08-05T21:09:22.828Z,97.43
2022-08-05T21:12:07.684Z,97.48
2022-08-05T21:14:36.507Z,97.76
2022-08-05T21:17:05.261Z,97.78
2022-08-05T21:19:46.570Z,97.81
2022-08-05T21:22:23.234Z,98.18
2022-08-05T21:24:52.509Z,98.49
2022-08-05T21:27:25.107Z,98.54
2022-08-05T21:29:52.601Z,98.73
2022-08-05T21:32:21.309Z,98.55
2022-08-05T21:35:06.748Z,98.47
2022-08-05T21:37:41.072Z,98.51
2022-08-05T21:40:13.635Z,98.46
2022-08-05T21:42:44.747Z,98.48
2022-08-05T21:45:13.620Z,98.51
2022-08-05T21:47:56.288Z,98.57
2022-08-05T21:50:24.471Z,98.59
2022-08-05T21:52:51.305Z,98.69
2022-08-05T21:56:01.519Z,98.79
2022-08-05T21:58:06.882Z,98.85
2022-08-05T22:00:37.926Z,98.88
2022-08-05T22:03:09.901Z,98.89
2022-08-05T22:05:48.981Z,99.01
2022-08-05T22:08:22.506Z,99.23
2022-08-05T22:10:51.821Z,99.41
2022-08-05T22:14:06.260Z,99.34
2022-08-05T22:16:32.315Z,99.30
2022-08-05T22:18:58.634Z,99.33
2022-08-05T22:21:25.654Z,99.25
2022-08-05T22:24:13.296Z,99.43
2022-08-05T22:27:17.425Z,99.38
2022-08-05T22:29:44.269Z,99.39
2022-08-05T22:32:12.915Z,99.54
2022-08-05T22:34:44.458Z,99.58
2022-08-05T22:37:12.566Z,99.53
2022-08-05T22:39:39.573Z,99.81
2022-08-05T22:42:12.725Z,99.82
2022-08-05T22:44:48.552Z,99.93
2022-08-05T22:47:29.827Z,99.94
2022-08-05T22:50:20.401Z,99.87
2022-08-05T22:52:50.127Z,99.93
2022-08-05T22:55:21.402Z,99.98
2022-08-05T22:57:52.996Z,99.94
2022-08-05T23:00:21.458Z,99.86
2022-08-05T23:02:50.636Z,99.79
2022-08-05T23:05:18.401Z,100.00
2022-08-05T23:07:49.590Z,100.00
2022-08-05T23:10:20.008Z,99.89
2022-08-05T23:12:51.605Z,99.71
2022-08-05T23:15:29.444Z,99.73
2022-08-05T23:18:00.849Z,99.98
2022-08-05T23:20:30.480Z,100.00
2022-08-05T23:22:58.722Z,100.00
2022-08-05T23:25:53.203Z,100.00
2022-08-05T23:28:15.898Z,100.00
2022-08-05T23:30:53.348Z,100.00
2022-08-05T23:33:26.404Z,100.00
2022-08-05T23:36:09.983Z,100.00
2022-08-05T23:38:37.791Z,100.00
2022-08-05T23:41:04.529Z,100.00
2022-08-05T23:43:37.282Z,100.00
2022-08-05T23:46:21.240Z,100.00
2022-08-05T23:49:01.029Z,100.00
2022-08-05T23:51:53.414Z,100.00
2022-08-05T23:54:30.140Z,100.00
2022-08-05T23:57:03.393Z,100.00
